Aeroporto :
LOGIN :

Iscrizione | Disclaimer

   EN    FR    IT 

 










Sommario :    VFR   VFR Marginale   IFR   IFR Intensivo   IFR Molto Intensivo
Visibilità : 
Base nubi : 
>= 8 km
>= 3000ft
5 / 8 km
1000 / 3000 ft
1500m / 5 km
500 / 1000 ft
800 / 1500m
200 / 500 ft
< 800m
< 200 ft
Simboli :   Temporali  Nebbia  Neve Forte  Precipitazioni Forti  Vento > 20 kt
SIGMETs :   Varie  Temporali  Ghiacco  Turbolenza  Onda orograficha  Ceneri Vulcaniche






- Altitudine del aeroporto : 17 ft
- Codice IATA : GRQ


EHGG - Groningen Eelde

ULTIMO METAR :
  • 201155Z AUTO VRB02KT 0100 R23/0200N FG VV000 00/00 Q1018 NOSIG

METARs OBSOLETI :
  • 201125Z AUTO VRB02KT 0100 R23/0225N FZFG VV000 M00/M00 Q1018 NOSIG
  • 201055Z AUTO VRB02KT 0100 R23/0200N FZFG VV000 M00/M00 Q1018 NOSIG
  • 201025Z AUTO VRB02KT 0100 R23/0175N FZFG VV000 M00/M01 Q1019 NOSIG
  • 200955Z AUTO 12004KT 080V150 0100 R23/0200N FZFG VV000 M01/M01 Q1019 NOSIG
  • 200925Z AUTO 14003KT 0150 R23/0250N FZFG VV000 M01/M01 Q1019 NOSIG

TAF TAF EHGG
Valido dal 20 a 12 ore il 21 a 18 ore UTC


201103Z 2012/2118 15003KT 0200 FG VV000
TEMPO 2012/2109 0800 VV002
BECMG 2109/2112 09010KT 2000 BR BKN003
PROB40 2109/2118 0800 FG VV001



MetMap, La meteo Aeronautica in un colpo d'occhio ! - Copyright ORBIFLY Dicembre 2007 - Disclaimer

ORBIFLY MET'MAP TEAM :

Programmazione e sviluppo : Alexandra Zaïnal
Concezione e sviluppo : Baudouin d'Aumeries
Co-Programmazione e sviluppo : Marc-Olivier Méhu
Supporto tecnico e logistico : Manuel Goepfert
Aiuto per la traduzione : Arnaldo La Scala

Contatto : metmap@orbifly.com




FONTI E CREDITI :

   NOAA